Clio, Michigan
Current Conditions -  °F | °C
As of 7:53 PM on Friday 19 Dec 2014 (Local Time) from KFNT Reporting Station
Clear Clear  
Wind Chill: 19°   Ceiling: Unl
Heat Index: 25°   Visibility: 10mi
Dew Point: 18°   Wind: 5mph
Humidity: 75%   Direction: 240°WSW
Pressure: 30.32"   Gusts: NA
Location:  43.18°N, 83.73°W
Report Text: KFNT 200053Z 24004KT 10SM CLR M04/M08 A3032 RMK AO2 SLP278 T10391078
Loading
Personal Weather Stations






























Interactive Weather Map New forecast layout! Learn more

10-Day Weather Forecast

Advertisements
Track Severe Weather on mobile